createdAt,value
2018-03-15T00:00:40.612Z,8.00
2018-03-15T00:01:40.602Z,7.96
2018-03-15T00:02:40.593Z,8.00
2018-03-15T00:03:40.583Z,7.86
2018-03-15T00:04:40.574Z,7.88
2018-03-15T00:05:40.565Z,7.85
2018-03-15T00:06:40.557Z,7.88
2018-03-15T00:07:40.549Z,7.89
2018-03-15T00:08:40.540Z,7.84
2018-03-15T00:09:40.532Z,7.73
2018-03-15T00:10:40.523Z,7.81
2018-03-15T00:11:40.518Z,7.82
2018-03-15T00:12:40.508Z,7.84
2018-03-15T00:13:40.501Z,7.74
2018-03-15T00:14:40.493Z,7.74
2018-03-15T00:15:40.482Z,7.88
2018-03-15T00:16:40.473Z,7.73
2018-03-15T00:17:40.463Z,7.86
2018-03-15T00:18:40.456Z,7.88
2018-03-15T00:19:40.450Z,7.84
2018-03-15T00:20:40.440Z,7.86
2018-03-15T00:21:40.433Z,7.86
2018-03-15T00:22:40.423Z,7.88
2018-03-15T00:23:40.417Z,7.85
2018-03-15T00:24:40.406Z,7.92
2018-03-15T00:25:40.398Z,7.77
2018-03-15T00:26:40.412Z,7.86
2018-03-15T00:27:40.380Z,7.85
2018-03-15T00:28:40.369Z,7.81
2018-03-15T00:29:40.361Z,7.74
2018-03-15T00:30:40.356Z,7.71
2018-03-15T00:31:40.352Z,7.71
2018-03-15T00:32:40.335Z,7.70
2018-03-15T00:33:40.327Z,7.71
2018-03-15T00:34:40.318Z,7.73
2018-03-15T00:35:40.313Z,7.69
2018-03-15T00:36:40.311Z,7.74
2018-03-15T00:37:40.296Z,7.73
2018-03-15T00:38:40.288Z,7.71
2018-03-15T00:39:40.339Z,7.74
2018-03-15T00:40:40.269Z,7.74
2018-03-15T00:41:40.260Z,7.76
2018-03-15T00:42:40.254Z,7.77
2018-03-15T00:43:40.241Z,7.73
2018-03-15T00:44:40.233Z,7.73
2018-03-15T00:45:40.224Z,7.60
2018-03-15T00:46:40.215Z,7.74
2018-03-15T00:47:40.207Z,7.71
2018-03-15T00:48:40.197Z,7.69
2018-03-15T00:49:40.189Z,7.66
2018-03-15T00:50:40.181Z,7.66
2018-03-15T00:51:40.174Z,7.55
2018-03-15T00:52:40.166Z,7.55
2018-03-15T00:53:40.158Z,7.52
2018-03-15T00:54:40.149Z,7.50
2018-03-15T00:55:40.140Z,7.47
2018-03-15T00:56:40.130Z,7.48
2018-03-15T00:57:40.122Z,7.44
2018-03-15T00:58:40.113Z,7.51
2018-03-15T00:59:40.104Z,7.52
2018-03-15T01:00:40.096Z,7.48
2018-03-15T01:01:40.085Z,7.47
2018-03-15T01:02:40.077Z,7.42
2018-03-15T01:03:40.069Z,7.50
2018-03-15T01:04:40.059Z,7.54
2018-03-15T01:05:40.054Z,7.50
2018-03-15T01:06:40.085Z,7.50
2018-03-15T01:07:40.038Z,7.48
2018-03-15T01:08:40.028Z,7.44
2018-03-15T01:09:40.018Z,7.48
2018-03-15T01:10:40.010Z,7.48
2018-03-15T01:11:40.001Z,7.51
2018-03-15T01:12:39.994Z,7.52
2018-03-15T01:13:39.983Z,7.66
2018-03-15T01:14:39.976Z,7.58
2018-03-15T01:15:39.964Z,7.62
2018-03-15T01:16:39.958Z,7.55
2018-03-15T01:17:39.946Z,7.63
2018-03-15T01:18:39.938Z,7.63
2018-03-15T01:19:39.929Z,7.50
2018-03-15T01:20:39.920Z,7.50
2018-03-15T01:21:39.914Z,7.47
2018-03-15T01:22:39.909Z,7.47
2018-03-15T01:23:39.897Z,7.47
2018-03-15T01:24:39.889Z,7.41
2018-03-15T01:25:39.880Z,7.42
2018-03-15T01:26:39.871Z,7.48
2018-03-15T01:27:39.862Z,7.62
2018-03-15T01:28:39.854Z,7.57
2018-03-15T01:29:39.847Z,7.50
2018-03-15T01:30:39.836Z,7.47
2018-03-15T01:31:39.825Z,7.42
2018-03-15T01:32:39.815Z,7.41
2018-03-15T01:33:39.807Z,7.36
2018-03-15T01:34:39.798Z,7.41
2018-03-15T01:35:39.790Z,7.41
2018-03-15T01:36:39.780Z,7.50
2018-03-15T01:37:39.772Z,7.48
2018-03-15T01:38:39.764Z,7.39
2018-03-15T01:39:39.757Z,7.44
2018-03-15T01:40:39.748Z,7.44
2018-03-15T01:41:39.738Z,7.39
2018-03-15T01:42:39.730Z,7.37
2018-03-15T01:43:39.722Z,7.41
2018-03-15T01:44:39.712Z,7.33
2018-03-15T01:45:39.705Z,7.33
2018-03-15T01:46:39.696Z,7.24
2018-03-15T01:47:39.685Z,7.39
2018-03-15T01:48:39.674Z,7.29
2018-03-15T01:49:39.667Z,7.36
2018-03-15T01:50:39.656Z,7.30
2018-03-15T01:51:39.648Z,7.24
2018-03-15T01:52:39.639Z,7.26
2018-03-15T01:53:39.631Z,7.29
2018-03-15T01:54:39.625Z,7.26
2018-03-15T01:55:39.616Z,7.41
2018-03-15T01:56:39.606Z,7.41
2018-03-15T01:57:39.598Z,7.44
2018-03-15T01:58:39.589Z,7.39
2018-03-15T01:59:39.581Z,7.44
2018-03-15T02:00:39.570Z,7.26
2018-03-15T02:01:39.562Z,7.29
2018-03-15T02:02:39.553Z,7.27
2018-03-15T02:03:39.542Z,7.21
2018-03-15T02:04:39.532Z,7.19
2018-03-15T02:05:39.523Z,7.21
2018-03-15T02:06:39.514Z,7.15
2018-03-15T02:07:39.505Z,7.18
2018-03-15T02:08:39.496Z,7.14
2018-03-15T02:09:39.487Z,7.15
2018-03-15T02:10:39.477Z,7.12
2018-03-15T02:11:39.473Z,7.14
2018-03-15T02:12:39.462Z,7.14
2018-03-15T02:13:39.457Z,7.18
2018-03-15T02:14:39.444Z,7.15
2018-03-15T02:15:39.436Z,7.18
2018-03-15T02:16:39.429Z,7.04
2018-03-15T02:17:39.417Z,7.01
2018-03-15T02:18:39.409Z,6.94
2018-03-15T02:19:39.397Z,6.91
2018-03-15T02:20:39.389Z,6.91
2018-03-15T02:21:39.379Z,6.96
2018-03-15T02:22:39.369Z,6.93
2018-03-15T02:23:39.363Z,7.05
2018-03-15T02:24:39.355Z,7.09
2018-03-15T02:25:39.347Z,7.15
2018-03-15T02:26:39.339Z,7.12
2018-03-15T02:27:39.325Z,7.19
2018-03-15T02:28:39.316Z,7.24
2018-03-15T02:29:39.306Z,7.12
2018-03-15T02:30:39.297Z,7.15
2018-03-15T02:31:39.288Z,7.18
2018-03-15T02:32:39.277Z,7.18
2018-03-15T02:33:39.270Z,7.14
2018-03-15T02:34:39.260Z,7.08
2018-03-15T02:35:39.254Z,7.04
2018-03-15T02:36:39.244Z,7.01
2018-03-15T02:37:39.236Z,6.96
2018-03-15T02:38:39.226Z,7.00
2018-03-15T02:39:39.217Z,7.01
2018-03-15T02:40:39.210Z,7.04
2018-03-15T02:41:39.200Z,7.01
2018-03-15T02:42:39.190Z,7.00
2018-03-15T02:43:39.178Z,7.01
2018-03-15T02:44:39.169Z,6.99
2018-03-15T02:45:39.161Z,7.11
2018-03-15T02:46:39.150Z,7.07
2018-03-15T02:47:39.142Z,7.04
2018-03-15T02:48:39.132Z,7.00
2018-03-15T02:49:39.123Z,7.07
2018-03-15T02:50:39.112Z,7.05
2018-03-15T02:51:39.108Z,7.01
2018-03-15T02:52:39.098Z,6.99
2018-03-15T02:53:39.088Z,7.07
2018-03-15T02:54:39.091Z,6.93
2018-03-15T02:55:39.077Z,7.00
2018-03-15T02:56:39.061Z,7.05
2018-03-15T02:57:39.051Z,7.11
2018-03-15T02:58:39.043Z,7.07
2018-03-15T02:59:39.032Z,7.00
2018-03-15T03:00:39.021Z,7.04
2018-03-15T03:01:39.012Z,7.05
2018-03-15T03:02:39.006Z,6.94
2018-03-15T03:03:38.994Z,6.99
2018-03-15T03:04:38.985Z,7.05
2018-03-15T03:05:38.975Z,7.00
2018-03-15T03:06:38.966Z,6.94
2018-03-15T03:07:38.960Z,7.11
2018-03-15T03:08:38.951Z,7.07
2018-03-15T03:09:38.941Z,7.04
2018-03-15T03:10:38.931Z,6.97
2018-03-15T03:11:38.922Z,6.91
2018-03-15T03:12:38.914Z,6.91
2018-03-15T03:13:38.905Z,6.89
2018-03-15T03:14:38.894Z,6.96
2018-03-15T03:15:38.883Z,6.89
2018-03-15T03:16:38.873Z,6.91
2018-03-15T03:17:38.864Z,6.90
2018-03-15T03:18:38.856Z,6.90
2018-03-15T03:19:38.845Z,6.86
2018-03-15T03:20:38.841Z,6.91
2018-03-15T03:21:38.826Z,6.83
2018-03-15T03:22:38.817Z,6.93
2018-03-15T03:23:38.811Z,6.90
2018-03-15T03:24:38.803Z,6.83
2018-03-15T03:25:38.791Z,6.94
2018-03-15T03:26:38.783Z,6.96
2018-03-15T03:27:38.774Z,6.90
2018-03-15T03:28:38.760Z,6.96
2018-03-15T03:29:38.752Z,6.89
2018-03-15T03:30:38.744Z,6.83
2018-03-15T03:31:38.737Z,6.90
2018-03-15T03:32:38.729Z,6.93
2018-03-15T03:33:38.721Z,6.94
2018-03-15T03:34:38.708Z,6.93
2018-03-15T03:35:38.699Z,7.00
2018-03-15T03:36:38.689Z,6.94
2018-03-15T03:37:38.679Z,6.94
2018-03-15T03:38:38.671Z,6.93
2018-03-15T03:39:38.659Z,6.93
2018-03-15T03:40:38.649Z,6.87
2018-03-15T03:41:38.640Z,6.93
2018-03-15T03:42:38.631Z,6.94
2018-03-15T03:43:38.622Z,6.93
2018-03-15T03:44:38.610Z,6.90
2018-03-15T03:45:38.603Z,6.93
2018-03-15T03:46:38.593Z,6.96
2018-03-15T03:47:38.591Z,6.93
2018-03-15T03:48:38.579Z,6.94
2018-03-15T03:49:38.567Z,6.94
2018-03-15T03:50:38.558Z,6.97
2018-03-15T03:51:38.549Z,6.90
2018-03-15T03:52:38.538Z,7.01
2018-03-15T03:53:38.533Z,6.97
2018-03-15T03:54:38.520Z,6.91
2018-03-15T03:55:38.509Z,6.99
2018-03-15T03:56:38.498Z,6.93
2018-03-15T03:57:38.489Z,7.05
2018-03-15T03:58:38.481Z,6.93
2018-03-15T03:59:38.475Z,7.00
2018-03-15T04:00:38.461Z,6.99
2018-03-15T04:01:38.452Z,6.99
2018-03-15T04:02:38.441Z,6.97
2018-03-15T04:03:38.437Z,6.97
2018-03-15T04:04:38.426Z,6.94
2018-03-15T04:05:38.416Z,6.93
2018-03-15T04:06:38.407Z,6.89
2018-03-15T04:07:38.398Z,6.93
2018-03-15T04:08:38.387Z,6.93
2018-03-15T04:09:38.379Z,6.93
2018-03-15T04:10:38.370Z,6.94
2018-03-15T04:11:38.361Z,7.05
2018-03-15T04:12:38.347Z,7.04
2018-03-15T04:13:38.339Z,6.99
2018-03-15T04:14:38.330Z,7.04
2018-03-15T04:15:38.320Z,7.11
2018-03-15T04:16:38.312Z,7.07
2018-03-15T04:17:38.301Z,7.01
2018-03-15T04:18:38.291Z,6.93
2018-03-15T04:19:38.285Z,6.96
2018-03-15T04:20:38.276Z,6.90
2018-03-15T04:21:38.266Z,6.90
2018-03-15T04:22:38.257Z,6.91
2018-03-15T04:23:38.249Z,6.91
2018-03-15T04:24:38.237Z,6.93
2018-03-15T04:25:38.231Z,6.91
2018-03-15T04:26:38.218Z,6.90
2018-03-15T04:27:38.207Z,6.93
2018-03-15T04:28:38.200Z,7.12
2018-03-15T04:29:38.187Z,7.08
2018-03-15T04:30:38.178Z,7.11
2018-03-15T04:31:38.172Z,6.99
2018-03-15T04:32:38.161Z,6.97
2018-03-15T04:33:38.153Z,7.01
2018-03-15T04:34:38.147Z,6.96
2018-03-15T04:35:38.131Z,6.99
2018-03-15T04:36:38.120Z,7.05
2018-03-15T04:37:38.110Z,7.05
2018-03-15T04:38:38.102Z,7.09
2018-03-15T04:39:38.093Z,6.96
2018-03-15T04:40:38.083Z,6.94
2018-03-15T04:41:38.072Z,6.97
2018-03-15T04:42:38.064Z,6.90
2018-03-15T04:43:38.057Z,7.05
2018-03-15T04:44:38.047Z,6.94
2018-03-15T04:45:38.039Z,6.94
2018-03-15T04:46:38.031Z,6.99
2018-03-15T04:47:38.032Z,6.83
2018-03-15T04:48:38.010Z,7.01
2018-03-15T04:49:38.000Z,6.93
2018-03-15T04:50:37.990Z,7.01
2018-03-15T04:51:37.978Z,6.96
2018-03-15T04:52:37.968Z,6.82
2018-03-15T04:53:37.959Z,6.87
2018-03-15T04:54:37.950Z,6.96
2018-03-15T04:55:37.941Z,6.93
2018-03-15T04:56:37.932Z,6.99
2018-03-15T04:57:37.921Z,6.93
2018-03-15T04:58:37.912Z,6.99
2018-03-15T04:59:37.904Z,6.93
2018-03-15T05:00:37.895Z,6.91
2018-03-15T05:01:37.886Z,6.93
2018-03-15T05:02:37.876Z,6.82
2018-03-15T05:03:37.866Z,6.94
2018-03-15T05:04:37.855Z,7.04
2018-03-15T05:05:37.847Z,7.01
2018-03-15T05:06:37.838Z,6.99
2018-03-15T05:07:37.827Z,6.94
2018-03-15T05:08:37.816Z,6.91
2018-03-15T05:09:37.806Z,6.91
2018-03-15T05:10:37.798Z,7.01
2018-03-15T05:11:37.802Z,6.94
2018-03-15T05:12:37.815Z,6.94
2018-03-15T05:13:37.768Z,6.93
2018-03-15T05:14:37.758Z,6.93
2018-03-15T05:15:37.752Z,6.94
2018-03-15T05:16:37.742Z,6.99
2018-03-15T05:17:37.736Z,7.05
2018-03-15T05:18:37.723Z,6.97
2018-03-15T05:19:37.715Z,6.99
2018-03-15T05:20:37.708Z,7.05
2018-03-15T05:21:37.694Z,6.89
2018-03-15T05:22:37.685Z,6.94
2018-03-15T05:23:37.673Z,6.94
2018-03-15T05:24:37.666Z,6.93
2018-03-15T05:25:37.654Z,6.94
2018-03-15T05:26:37.645Z,6.90
2018-03-15T05:27:37.635Z,6.87
2018-03-15T05:28:37.628Z,6.89
2018-03-15T05:29:37.620Z,6.90
2018-03-15T05:30:37.606Z,6.86
2018-03-15T05:31:37.599Z,6.94
2018-03-15T05:32:37.590Z,7.01
2018-03-15T05:33:37.581Z,6.97
2018-03-15T05:34:37.571Z,7.04
2018-03-15T05:35:37.560Z,6.97
2018-03-15T05:36:37.551Z,7.07
2018-03-15T05:37:37.541Z,7.05
2018-03-15T05:38:37.529Z,7.05
2018-03-15T05:39:37.524Z,7.04
2018-03-15T05:40:37.513Z,7.19
2018-03-15T05:41:37.506Z,7.16
2018-03-15T05:42:37.495Z,7.14
2018-03-15T05:43:37.486Z,7.11
2018-03-15T05:44:37.476Z,7.05
2018-03-15T05:45:37.466Z,7.11
2018-03-15T05:46:37.458Z,7.15
2018-03-15T05:47:37.448Z,7.15
2018-03-15T05:48:37.435Z,7.09
2018-03-15T05:49:37.431Z,7.14
2018-03-15T05:50:37.417Z,7.14
2018-03-15T05:51:37.408Z,7.14
2018-03-15T05:52:37.398Z,7.09
2018-03-15T05:53:37.389Z,7.14
2018-03-15T05:54:37.379Z,7.18
2018-03-15T05:55:37.375Z,7.14
2018-03-15T05:56:37.365Z,7.18
2018-03-15T05:57:37.354Z,7.14
2018-03-15T05:58:37.350Z,7.11
2018-03-15T05:59:37.337Z,7.14
2018-03-15T06:00:37.329Z,7.16
2018-03-15T06:01:37.317Z,7.33
2018-03-15T06:02:37.309Z,7.32
2018-03-15T06:03:37.297Z,7.32
2018-03-15T06:04:37.287Z,7.41
2018-03-15T06:05:37.278Z,7.47
2018-03-15T06:06:37.269Z,7.39
2018-03-15T06:07:37.277Z,7.47
2018-03-15T06:08:37.250Z,7.50
2018-03-15T06:09:37.241Z,7.48
2018-03-15T06:10:37.232Z,7.47
2018-03-15T06:11:37.225Z,7.58
2018-03-15T06:12:37.216Z,7.84
2018-03-15T06:13:37.206Z,8.07
2018-03-15T06:14:37.199Z,8.50
2018-03-15T06:15:37.190Z,8.91
2018-03-15T06:16:37.179Z,9.27
2018-03-15T06:17:37.171Z,9.58
2018-03-15T06:18:37.162Z,9.74
2018-03-15T06:19:37.152Z,9.56
2018-03-15T06:20:37.143Z,9.56
2018-03-15T06:21:37.134Z,9.59
2018-03-15T06:22:37.126Z,9.68
2018-03-15T06:23:37.119Z,9.52
2018-03-15T06:24:37.110Z,9.17
2018-03-15T06:25:37.103Z,9.19
2018-03-15T06:26:37.096Z,9.22
2018-03-15T06:27:37.091Z,9.37
2018-03-15T06:28:37.086Z,9.49
2018-03-15T06:29:37.076Z,9.71
2018-03-15T06:30:37.068Z,9.89
2018-03-15T06:31:37.061Z,9.62
2018-03-15T06:32:37.055Z,9.70
2018-03-15T06:33:37.047Z,9.70
2018-03-15T06:34:37.041Z,9.77
2018-03-15T06:35:37.031Z,9.93
2018-03-15T06:36:37.023Z,10.32
2018-03-15T06:37:37.017Z,10.83
2018-03-15T06:38:37.011Z,10.81
2018-03-15T06:39:37.006Z,10.99
2018-03-15T06:40:37.000Z,11.23
2018-03-15T06:41:36.993Z,11.26
2018-03-15T06:42:36.987Z,11.31
2018-03-15T06:43:36.980Z,11.62
2018-03-15T06:44:36.972Z,12.13
2018-03-15T06:45:36.967Z,11.85
2018-03-15T06:46:36.962Z,11.96
2018-03-15T06:47:36.956Z,12.21
2018-03-15T06:48:36.951Z,12.77
2018-03-15T06:49:36.950Z,12.91
2018-03-15T06:50:36.942Z,13.07
2018-03-15T06:51:36.941Z,12.67
2018-03-15T06:52:36.935Z,12.84
2018-03-15T06:53:36.930Z,12.77
2018-03-15T06:54:36.927Z,13.12
2018-03-15T06:55:36.924Z,13.25
2018-03-15T06:56:36.919Z,13.50
2018-03-15T06:57:36.916Z,13.65
2018-03-15T06:58:36.913Z,13.39
2018-03-15T06:59:36.907Z,13.88
2018-03-15T07:00:36.904Z,14.45
2018-03-15T07:01:36.905Z,14.27
2018-03-15T07:02:36.899Z,14.01
2018-03-15T07:03:36.899Z,13.72
2018-03-15T07:04:36.893Z,14.20
2018-03-15T07:05:36.892Z,14.59
2018-03-15T07:06:36.891Z,14.67
2018-03-15T07:07:36.892Z,14.16
2018-03-15T07:08:36.889Z,14.20
2018-03-15T07:09:36.888Z,14.74
2018-03-15T07:10:36.889Z,15.34
2018-03-15T07:11:36.887Z,15.98
2018-03-15T07:12:36.885Z,16.78
2018-03-15T07:13:36.886Z,15.76
2018-03-15T07:14:36.885Z,14.91
2018-03-15T07:15:36.882Z,15.19
2018-03-15T07:16:36.929Z,14.82
2018-03-15T07:17:36.881Z,15.16
2018-03-15T07:18:36.882Z,15.33
2018-03-15T07:19:36.882Z,15.60
2018-03-15T07:20:36.882Z,15.98
2018-03-15T07:21:36.884Z,16.11
2018-03-15T07:22:36.885Z,16.04
2018-03-15T07:23:36.888Z,15.48
2018-03-15T07:24:36.888Z,15.27
2018-03-15T07:25:36.890Z,15.13
2018-03-15T07:26:36.892Z,14.71
2018-03-15T07:27:36.892Z,14.82
2018-03-15T07:28:36.893Z,15.04
2018-03-15T07:29:36.894Z,14.69
2018-03-15T07:30:36.896Z,14.66
2018-03-15T07:31:36.895Z,15.16
2018-03-15T07:32:36.903Z,14.98
2018-03-15T07:33:36.897Z,16.03
2018-03-15T07:34:36.902Z,16.51
2018-03-15T07:35:36.900Z,17.10
2018-03-15T07:36:36.901Z,17.81
2018-03-15T07:37:36.903Z,18.66
2018-03-15T07:38:36.904Z,18.46
2018-03-15T07:39:36.911Z,19.23
2018-03-15T07:40:36.912Z,19.31
2018-03-15T07:41:36.913Z,18.49
2018-03-15T07:42:36.916Z,18.04
2018-03-15T07:43:36.917Z,17.62
2018-03-15T07:44:36.920Z,17.87
2018-03-15T07:45:36.922Z,17.94
2018-03-15T07:46:36.925Z,18.07
2018-03-15T07:47:36.933Z,17.14
2018-03-15T07:48:36.935Z,17.58
2018-03-15T07:49:36.939Z,17.65
2018-03-15T07:50:36.942Z,17.91
2018-03-15T07:51:36.947Z,17.22
2018-03-15T07:52:36.950Z,17.39
2018-03-15T07:53:36.958Z,17.03
2018-03-15T07:54:36.958Z,15.88
2018-03-15T07:55:36.961Z,16.29
2018-03-15T07:56:36.964Z,17.09
2018-03-15T07:57:36.970Z,17.89
2018-03-15T07:58:36.973Z,18.19
2018-03-15T07:59:36.981Z,18.93
2018-03-15T08:00:36.987Z,19.43
2018-03-15T08:01:36.985Z,19.32
2018-03-15T08:02:36.991Z,19.49
2018-03-15T08:03:36.998Z,18.94
2018-03-15T08:04:37.002Z,18.47
2018-03-15T08:05:37.007Z,17.86
2018-03-15T08:06:37.013Z,18.60
2018-03-15T08:07:37.020Z,17.57
2018-03-15T08:08:37.022Z,17.58
2018-03-15T08:09:37.027Z,18.07
2018-03-15T08:10:37.032Z,17.39
2018-03-15T08:11:37.035Z,17.89
2018-03-15T08:12:37.039Z,18.94
2018-03-15T08:13:37.045Z,17.92
2018-03-15T08:14:37.075Z,17.62
2018-03-15T08:15:37.056Z,18.10
2018-03-15T08:16:37.059Z,17.53
2018-03-15T08:17:37.064Z,18.35
2018-03-15T08:18:37.068Z,18.59
2018-03-15T08:19:37.077Z,18.39
2018-03-15T08:20:37.111Z,17.60
2018-03-15T08:21:37.087Z,17.24
2018-03-15T08:22:37.092Z,17.98
2018-03-15T08:23:37.100Z,17.54
2018-03-15T08:24:37.101Z,16.22
2018-03-15T08:25:37.107Z,16.30
2018-03-15T08:26:37.114Z,15.84
2018-03-15T08:27:37.116Z,16.32
2018-03-15T08:28:37.117Z,17.09
2018-03-15T08:29:37.121Z,17.55
2018-03-15T08:30:37.124Z,17.06
2018-03-15T08:31:37.131Z,17.36
2018-03-15T08:32:37.133Z,17.33
2018-03-15T08:33:37.138Z,17.60
2018-03-15T08:34:37.144Z,17.35
2018-03-15T08:35:37.152Z,16.01
2018-03-15T08:36:37.156Z,15.43
2018-03-15T08:37:37.164Z,16.03
2018-03-15T08:38:37.164Z,15.33
2018-03-15T08:39:37.193Z,15.37
2018-03-15T08:40:37.182Z,15.41
2018-03-15T08:41:37.176Z,16.40
2018-03-15T08:42:37.180Z,16.80
2018-03-15T08:43:37.180Z,17.60
2018-03-15T08:44:37.183Z,17.63
2018-03-15T08:45:37.187Z,16.96
2018-03-15T08:46:37.190Z,17.22
2018-03-15T08:47:37.198Z,17.22
2018-03-15T08:48:37.209Z,15.52
2018-03-15T08:49:37.206Z,16.06
2018-03-15T08:50:37.210Z,16.66
2018-03-15T08:51:37.212Z,16.78
2018-03-15T08:52:37.215Z,16.37
2018-03-15T08:53:37.218Z,16.96
2018-03-15T08:54:37.228Z,15.88
2018-03-15T08:55:37.226Z,15.89
2018-03-15T08:56:37.272Z,16.65
2018-03-15T08:57:37.246Z,16.62
2018-03-15T08:58:37.238Z,17.18
2018-03-15T08:59:37.246Z,17.09
2018-03-15T09:00:37.249Z,17.22
2018-03-15T09:01:37.255Z,18.39
2018-03-15T09:02:37.267Z,18.19
2018-03-15T09:03:37.264Z,18.10
2018-03-15T09:04:37.806Z,18.69
2018-03-15T09:05:37.272Z,19.67
2018-03-15T09:06:37.278Z,20.35
2018-03-15T09:07:37.278Z,20.81
2018-03-15T09:08:37.340Z,20.20
2018-03-15T09:09:37.287Z,18.90
2018-03-15T09:10:37.293Z,18.17
2018-03-15T09:11:37.298Z,18.54
2018-03-15T09:12:37.302Z,18.78
2018-03-15T09:13:37.309Z,19.67
2018-03-15T09:14:37.314Z,19.20
2018-03-15T09:15:37.323Z,17.10
2018-03-15T09:16:37.328Z,17.65
2018-03-15T09:17:37.338Z,17.25
2018-03-15T09:18:37.341Z,18.01
2018-03-15T09:19:37.345Z,18.84
2018-03-15T09:20:37.351Z,19.25
2018-03-15T09:21:37.358Z,19.42
2018-03-15T09:22:37.362Z,20.35
2018-03-15T09:23:37.409Z,20.26
2018-03-15T09:24:37.370Z,21.18
2018-03-15T09:25:37.376Z,20.82
2018-03-15T09:26:37.383Z,19.70
2018-03-15T09:27:37.390Z,20.61
2018-03-15T09:28:37.416Z,21.26
2018-03-15T09:29:37.400Z,20.69
2018-03-15T09:30:37.406Z,20.44
2018-03-15T09:31:37.417Z,19.67
2018-03-15T09:32:37.422Z,19.35
2018-03-15T09:33:37.429Z,19.15
2018-03-15T09:34:37.440Z,19.87
2018-03-15T09:35:37.442Z,19.89
2018-03-15T09:36:37.448Z,19.65
2018-03-15T09:37:37.458Z,18.66
2018-03-15T09:38:37.462Z,18.38
2018-03-15T09:39:37.466Z,17.60
2018-03-15T09:40:37.537Z,17.22
2018-03-15T09:41:37.479Z,17.53
2018-03-15T09:42:37.482Z,17.12
2018-03-15T09:43:37.490Z,17.05
2018-03-15T09:44:37.495Z,16.41
2018-03-15T09:45:37.503Z,17.49
2018-03-15T09:46:37.506Z,18.11
2018-03-15T09:47:37.518Z,18.20
2018-03-15T09:48:37.520Z,18.17
2018-03-15T09:49:37.527Z,18.49
2018-03-15T09:50:37.532Z,18.79
2018-03-15T09:51:37.537Z,18.94
2018-03-15T09:52:37.543Z,20.01
2018-03-15T09:53:37.547Z,20.51
2018-03-15T09:54:37.552Z,19.76
2018-03-15T09:55:37.555Z,19.38
2018-03-15T09:56:37.559Z,19.57
2018-03-15T09:57:37.564Z,20.54
2018-03-15T09:58:37.570Z,20.69
2018-03-15T09:59:37.576Z,19.42
2018-03-15T10:00:37.580Z,19.02
2018-03-15T10:01:37.586Z,18.19
2018-03-15T10:02:37.594Z,17.95
2018-03-15T10:03:37.602Z,18.13
2018-03-15T10:04:37.609Z,18.35
2018-03-15T10:05:37.613Z,17.65
2018-03-15T10:06:37.619Z,18.21
2018-03-15T10:07:37.625Z,18.68
2018-03-15T10:08:37.630Z,18.32
2018-03-15T10:09:37.634Z,18.99
2018-03-15T10:10:37.641Z,18.71
2018-03-15T10:11:37.644Z,19.02
2018-03-15T10:12:37.649Z,18.71
2018-03-15T10:13:37.654Z,19.40
2018-03-15T10:14:37.662Z,20.42
2018-03-15T10:15:37.666Z,20.88
2018-03-15T10:16:37.674Z,20.33
2018-03-15T10:17:37.675Z,19.92
2018-03-15T10:18:37.687Z,21.12
2018-03-15T10:19:37.694Z,20.66
2018-03-15T10:20:37.696Z,20.00
2018-03-15T10:21:37.702Z,20.16
2018-03-15T10:22:37.708Z,19.71
2018-03-15T10:23:37.715Z,20.61
2018-03-15T10:24:37.720Z,20.88
2018-03-15T10:25:37.726Z,21.27
2018-03-15T10:26:37.733Z,20.93
2018-03-15T10:27:37.737Z,20.16
2018-03-15T10:28:37.742Z,19.92
2018-03-15T10:29:37.749Z,20.02
2018-03-15T10:30:37.755Z,20.15
2018-03-15T10:31:37.761Z,19.98
2018-03-15T10:32:37.768Z,18.99
2018-03-15T10:33:37.776Z,17.87
2018-03-15T10:34:37.779Z,16.85
2018-03-15T10:35:37.789Z,16.63
2018-03-15T10:36:37.794Z,16.84
2018-03-15T10:37:37.801Z,16.95
2018-03-15T10:38:37.808Z,17.12
2018-03-15T10:39:37.812Z,17.54
2018-03-15T10:40:37.816Z,17.28
2018-03-15T10:41:37.821Z,17.43
2018-03-15T10:42:37.828Z,17.95
2018-03-15T10:43:37.828Z,17.65
2018-03-15T10:44:37.831Z,17.55
2018-03-15T10:45:37.836Z,17.57
2018-03-15T10:46:37.842Z,17.62
2018-03-15T10:47:37.846Z,17.57
2018-03-15T10:48:37.849Z,17.57
2018-03-15T10:49:37.852Z,17.17
2018-03-15T10:50:37.857Z,16.85
2018-03-15T10:51:37.865Z,16.84
2018-03-15T10:52:37.868Z,17.00
2018-03-15T10:53:37.886Z,16.80
2018-03-15T10:54:37.876Z,16.95
2018-03-15T10:55:37.876Z,17.14
2018-03-15T10:56:37.876Z,17.06
2018-03-15T10:57:37.880Z,17.10
2018-03-15T10:58:37.883Z,17.05
2018-03-15T10:59:37.889Z,16.52
2018-03-15T11:00:37.892Z,16.32
2018-03-15T11:01:37.897Z,16.29
2018-03-15T11:02:37.896Z,16.57
2018-03-15T11:03:37.899Z,16.42
2018-03-15T11:04:37.901Z,16.26
2018-03-15T11:05:37.904Z,16.14
2018-03-15T11:06:37.906Z,15.85
2018-03-15T11:07:37.905Z,15.71
2018-03-15T11:08:37.907Z,15.59
2018-03-15T11:09:37.908Z,15.67
2018-03-15T11:10:37.910Z,15.71
2018-03-15T11:11:37.912Z,15.60
2018-03-15T11:12:37.913Z,15.60
2018-03-15T11:13:37.915Z,15.85
2018-03-15T11:14:37.918Z,15.68
2018-03-15T11:15:37.922Z,15.74
2018-03-15T11:16:37.926Z,15.78
2018-03-15T11:17:37.924Z,16.04
2018-03-15T11:18:37.925Z,16.04
2018-03-15T11:19:37.926Z,15.78
2018-03-15T11:20:37.927Z,15.74
2018-03-15T11:21:37.929Z,15.84
2018-03-15T11:22:37.930Z,15.77
2018-03-15T11:23:37.927Z,15.46
2018-03-15T11:24:37.927Z,15.33
2018-03-15T11:25:37.927Z,15.25
2018-03-15T11:26:37.928Z,15.33
2018-03-15T11:27:37.928Z,15.40
2018-03-15T11:28:37.929Z,15.35
2018-03-15T11:29:37.930Z,15.51
2018-03-15T11:30:37.929Z,15.56
2018-03-15T11:31:37.934Z,15.59
2018-03-15T11:32:37.934Z,15.28
2018-03-15T11:33:37.934Z,15.18
2018-03-15T11:34:37.934Z,15.33
2018-03-15T11:35:37.934Z,15.52
2018-03-15T11:36:37.935Z,15.60
2018-03-15T11:37:37.934Z,15.53
2018-03-15T11:38:37.999Z,15.33
2018-03-15T11:39:37.931Z,15.23
2018-03-15T11:40:37.930Z,15.25
2018-03-15T11:41:37.929Z,15.19
2018-03-15T11:42:37.930Z,15.34
2018-03-15T11:43:37.928Z,15.58
2018-03-15T11:44:37.928Z,15.56
2018-03-15T11:45:37.928Z,15.44
2018-03-15T11:46:37.927Z,15.46
2018-03-15T11:47:37.930Z,15.59
2018-03-15T11:48:37.928Z,15.62
2018-03-15T11:49:37.928Z,15.67
2018-03-15T11:50:37.975Z,15.74
2018-03-15T11:51:37.928Z,16.11
2018-03-15T11:52:37.928Z,16.17
2018-03-15T11:53:37.926Z,16.36
2018-03-15T11:54:37.932Z,16.55
2018-03-15T11:55:37.922Z,16.51
2018-03-15T11:56:37.925Z,16.65
2018-03-15T11:57:37.920Z,16.59
2018-03-15T11:58:37.919Z,16.62
2018-03-15T11:59:37.928Z,16.42
2018-03-15T12:00:37.944Z,16.40
2018-03-15T12:01:37.944Z,16.26
2018-03-15T12:02:37.924Z,16.29
2018-03-15T12:03:37.919Z,16.03
2018-03-15T12:04:37.918Z,15.71
2018-03-15T12:05:37.918Z,15.70
2018-03-15T12:06:37.919Z,15.84
2018-03-15T12:07:37.991Z,15.74
2018-03-15T12:08:37.917Z,15.74
2018-03-15T12:09:37.917Z,15.53
2018-03-15T12:10:37.916Z,15.48
2018-03-15T12:11:37.921Z,15.35
2018-03-15T12:12:37.919Z,15.43
2018-03-15T12:13:37.919Z,15.31
2018-03-15T12:14:37.919Z,15.33
2018-03-15T12:15:37.918Z,15.37
2018-03-15T12:16:37.917Z,15.30
2018-03-15T12:17:37.920Z,15.35
2018-03-15T12:18:37.917Z,15.40
2018-03-15T12:19:37.913Z,15.33
2018-03-15T12:20:37.912Z,15.27
2018-03-15T12:21:37.911Z,15.31
2018-03-15T12:22:37.910Z,15.40
2018-03-15T12:23:37.911Z,15.43
2018-03-15T12:24:37.910Z,15.38
2018-03-15T12:25:37.908Z,15.38
2018-03-15T12:26:37.908Z,15.49
2018-03-15T12:27:37.910Z,15.51
2018-03-15T12:28:37.909Z,15.41
2018-03-15T12:29:37.909Z,15.43
2018-03-15T12:30:37.908Z,15.34
2018-03-15T12:31:37.907Z,15.34
2018-03-15T12:32:37.905Z,15.23
2018-03-15T12:33:37.905Z,15.31
2018-03-15T12:34:37.903Z,15.25
2018-03-15T12:35:37.900Z,15.35
2018-03-15T12:36:37.898Z,15.35
2018-03-15T12:37:37.897Z,15.40
2018-03-15T12:38:37.897Z,15.43
2018-03-15T12:39:37.894Z,15.38
2018-03-15T12:40:37.895Z,15.40
2018-03-15T12:41:37.892Z,15.43
2018-03-15T12:42:37.915Z,15.30
2018-03-15T12:43:37.894Z,15.18
2018-03-15T12:44:37.892Z,15.28
2018-03-15T12:45:37.891Z,15.35
2018-03-15T12:46:37.890Z,15.33
2018-03-15T12:47:37.890Z,15.01
2018-03-15T12:48:37.888Z,15.11
2018-03-15T12:49:37.886Z,15.19
2018-03-15T12:50:37.885Z,15.20
2018-03-15T12:51:37.884Z,15.33
2018-03-15T12:52:37.878Z,15.44
2018-03-15T12:53:37.877Z,15.43
2018-03-15T12:54:37.879Z,15.55
2018-03-15T12:55:37.876Z,15.67
2018-03-15T12:56:37.873Z,15.70
2018-03-15T12:57:37.872Z,15.78
2018-03-15T12:58:37.871Z,15.74
2018-03-15T12:59:37.873Z,15.77
2018-03-15T13:00:37.871Z,15.43
2018-03-15T13:01:37.870Z,15.33
2018-03-15T13:02:37.868Z,15.37
2018-03-15T13:03:37.866Z,15.34
2018-03-15T13:04:37.862Z,15.31
2018-03-15T13:05:37.909Z,15.43